Time;durP1;ratioP1;P1;durP2;ratioP2;P2;SDS_P1;SDS_P2;PMS_P1;PMS_P2;Temp;Humidity;BMP_temperature;BMP_pressure;BME280_temperature;BME280_humidity;BME280_pressure;Samples;Min_cycle;Max_cycle;Signal;HPM_P1;HPM_P2
2022/02/11 00:00:53;;;;;;;;;;;;;;;18.39;50.30;100661.63;2056615;28;19949;-43
2022/02/11 00:07:07;;;;;;;;;;;;;;;18.16;50.52;100670.91;2057090;28;20522;-42
2022/02/11 00:08:07;;;;;;;;;;;;;;;18.13;50.79;100665.72;2058550;28;20088;-43
2022/02/11 00:09:08;;;;;;;;;;;;;;;18.13;50.71;100660.28;2060673;28;20346;-43
2022/02/11 00:10:08;;;;;;;;;;;;;;;18.09;50.65;100659.66;2065224;28;20275;-43
2022/02/11 00:11:09;;;;;;;;;;;;;;;18.09;50.60;100664.25;2049580;28;19922;-42
2022/02/11 00:12:09;;;;;;;;;;;;;;;18.09;50.74;100669.69;2051049;28;19917;-42
2022/02/11 00:13:09;;;;;;;;;;;;;;;18.07;50.87;100661.63;2052983;28;20484;-42
2022/02/11 00:14:10;;;;;;;;;;;;;;;18.06;50.69;100662.63;2056798;28;20290;-44
2022/02/11 00:15:37;;;;;;;;;;;;;;;18.05;50.81;100665.47;2060746;28;19918;-43
2022/02/11 00:16:40;;;;;;;;;;;;;;;18.03;50.89;100664.75;2067642;28;20351;-43
2022/02/11 00:17:40;;;;;;;;;;;;;;;18.03;50.98;100659.28;2059565;28;19922;-43
2022/02/11 00:18:40;;;;;;;;;;;;;;;18.02;50.98;100666.63;2061998;28;19920;-44
2022/02/11 00:19:41;;;;;;;;;;;;;;;18.02;50.97;100671.22;2065192;28;19921;-43
2022/02/11 00:20:59;;;;;;;;;;;;;;;18.00;50.91;100671.31;2059054;28;19925;-43
2022/02/11 00:22:00;;;;;;;;;;;;;;;17.98;51.01;100663.28;2057018;28;19941;-43
2022/02/11 00:23:00;;;;;;;;;;;;;;;17.97;51.10;100658.81;2051642;28;19917;-43
2022/02/11 00:24:01;;;;;;;;;;;;;;;17.98;51.03;100666.03;2063883;28;19913;-43
2022/02/11 00:25:01;;;;;;;;;;;;;;;17.96;50.97;100662.56;2051343;28;19926;-43
2022/02/11 00:26:03;;;;;;;;;;;;;;;17.95;51.01;100658.06;2055211;28;19921;-44
2022/02/11 00:31:08;;;;;;;;;;;;;;;17.93;51.07;100654.63;2057447;28;20471;-43
2022/02/11 00:32:23;;;;;;;;;;;;;;;17.93;51.05;100651.91;2060608;28;19926;-43
2022/02/11 00:33:28;;;;;;;;;;;;;;;17.93;51.20;100653.75;2055801;28;19981;-44
2022/02/11 00:34:40;;;;;;;;;;;;;;;17.92;51.09;100655.59;2049184;28;20287;-43
2022/02/11 00:35:46;;;;;;;;;;;;;;;17.92;51.38;100657.47;2055187;28;21554;-43
2022/02/11 00:37:08;;;;;;;;;;;;;;;17.91;51.39;100645.72;2063051;28;19920;-43
2022/02/11 00:38:15;;;;;;;;;;;;;;;17.91;51.32;100651.16;2063213;28;19921;-43
2022/02/11 00:39:50;;;;;;;;;;;;;;;17.91;51.14;100651.16;2066055;28;19944;-44
2022/02/11 00:41:37;;;;;;;;;;;;;;;17.91;51.18;100658.47;2064352;28;19925;-44
2022/02/11 00:46:21;;;;;;;;;;;;;;;17.89;51.33;100652.28;2061701;28;19955;-43
2022/02/11 01:04:18;;;;;;;;;;;;;;;17.80;51.55;100659.38;2064513;28;19949;-43
2022/02/11 01:05:19;;;;;;;;;;;;;;;17.78;51.55;100661.31;2064188;28;19964;-48
2022/02/11 01:06:19;;;;;;;;;;;;;;;17.78;51.51;100659.47;2063936;28;19940;-43
2022/02/11 01:07:19;;;;;;;;;;;;;;;17.79;51.65;100654.88;2066061;28;19920;-43
2022/02/11 01:08:20;;;;;;;;;;;;;;;17.78;51.67;100650.41;2064503;28;20038;-43
2022/02/11 01:09:20;;;;;;;;;;;;;;;17.77;51.55;100655.00;2065533;28;19921;-46
2022/02/11 01:10:22;;;;;;;;;;;;;;;17.78;51.66;100655.84;2064937;28;19921;-43
2022/02/11 01:11:42;;;;;;;;;;;;;;;17.77;51.55;100649.53;2064255;28;19921;-43
2022/02/11 01:12:43;;;;;;;;;;;;;;;17.76;51.67;100647.81;2065147;28;19943;-44
2022/02/11 01:13:43;;;;;;;;;;;;;;;17.77;51.66;100648.69;2065855;28;19922;-43
2022/02/11 01:14:50;;;;;;;;;;;;;;;17.76;51.69;100641.47;2067350;28;19917;-44
2022/02/11 01:15:58;;;;;;;;;;;;;;;17.76;51.38;100647.81;2055584;28;20403;-43
2022/02/11 01:17:07;;;;;;;;;;;;;;;17.76;51.61;100653.28;2054505;28;19948;-43
2022/02/11 01:18:09;;;;;;;;;;;;;;;17.75;51.40;100653.41;2063184;28;20345;-43
2022/02/11 01:19:21;;;;;;;;;;;;;;;17.76;51.49;100657.84;2063259;28;20528;-43
2022/02/11 01:20:39;;;;;;;;;;;;;;;17.76;51.44;100656.00;2064835;28;19927;-43
2022/02/11 01:21:49;;;;;;;;;;;;;;;17.76;51.51;100653.28;2061999;28;19939;-44
2022/02/11 01:28:45;;;;;;;;;;;;;;;17.75;51.61;100667.88;2063605;28;19925;-45
2022/02/11 01:32:22;;;;;;;;;;;;;;;17.73;51.67;100663.56;2063221;28;19921;-43
2022/02/11 01:34:53;;;;;;;;;;;;;;;17.73;51.64;100671.75;2064460;28;19920;-43
2022/02/11 01:38:47;;;;;;;;;;;;;;;17.70;51.76;100669.28;2065465;28;19921;-42
2022/02/11 01:44:25;;;;;;;;;;;;;;;17.68;51.75;100676.72;2068257;28;19917;-43
2022/02/11 01:50:28;;;;;;;;;;;;;;;17.65;51.90;100676.97;2064069;28;19921;-43
2022/02/11 01:51:39;;;;;;;;;;;;;;;17.66;51.72;100678.69;2063155;28;19932;-44
2022/02/11 01:53:55;;;;;;;;;;;;;;;17.65;51.91;100680.56;2062259;28;19936;-43
2022/02/11 02:00:02;;;;;;;;;;;;;;;17.64;51.70;100686.13;2067518;28;19920;-43
2022/02/11 02:01:36;;;;;;;;;;;;;;;17.65;51.87;100687.88;2061224;28;20328;-42
2022/02/11 02:03:49;;;;;;;;;;;;;;;17.63;51.85;100673.50;2063156;28;19917;-43
2022/02/11 02:06:19;;;;;;;;;;;;;;;17.63;51.98;100684.41;2063367;28;19972;-43
2022/02/11 02:11:46;;;;;;;;;;;;;;;17.62;51.79;100678.09;2066047;28;19921;-42
2022/02/11 02:14:21;;;;;;;;;;;;;;;17.61;51.91;100675.47;2067550;28;19994;-43
2022/02/11 02:15:39;;;;;;;;;;;;;;;17.61;51.85;100680.94;2064159;28;19921;-42
2022/02/11 02:20:07;;;;;;;;;;;;;;;17.58;51.83;100682.91;2065108;28;20283;-43
2022/02/11 02:25:00;;;;;;;;;;;;;;;17.57;52.20;100680.34;2066547;28;19932;-42
2022/02/11 02:50:25;;;;;;;;;;;;;;;17.58;52.05;100655.66;2062693;28;19975;-44
2022/02/11 02:57:04;;;;;;;;;;;;;;;17.57;51.95;100650.34;2064884;28;20008;-43
2022/02/11 02:58:17;;;;;;;;;;;;;;;17.56;52.07;100656.78;2062614;28;20076;-42
2022/02/11 03:01:35;;;;;;;;;;;;;;;17.54;51.74;100656.03;2064593;28;19969;-42
2022/02/11 03:35:37;;;;;;;;;;;;;;;17.44;52.25;100653.22;2066667;28;19933;-44
2022/02/11 03:52:36;;;;;;;;;;;;;;;17.41;52.24;100658.03;2063275;28;19921;-42
2022/02/11 04:55:22;;;;;;;;;;;;;;;17.27;52.58;100697.28;2064114;28;19921;-44
2022/02/11 04:56:24;;;;;;;;;;;;;;;17.26;52.64;100692.84;2065120;28;19925;-42
2022/02/11 05:00:05;;;;;;;;;;;;;;;17.26;52.67;100698.31;2060521;28;19921;-42
2022/02/11 05:01:05;;;;;;;;;;;;;;;17.25;52.64;100696.56;2062493;28;19921;-43
2022/02/11 05:02:06;;;;;;;;;;;;;;;17.24;52.50;100701.13;2062057;28;19917;-42
2022/02/11 05:03:07;;;;;;;;;;;;;;;17.25;52.66;100704.75;2068891;28;19917;-43
2022/02/11 05:04:07;;;;;;;;;;;;;;;17.25;52.68;100707.47;2060966;28;19921;-43
2022/02/11 05:05:08;;;;;;;;;;;;;;;17.24;52.77;100711.16;2058478;28;20359;-42
2022/02/11 05:06:09;;;;;;;;;;;;;;;17.24;52.68;100712.03;2053089;28;19973;-43
2022/02/11 05:07:10;;;;;;;;;;;;;;;17.24;52.49;100706.59;2063471;28;19921;-43
2022/02/11 05:08:10;;;;;;;;;;;;;;;17.24;52.66;100712.03;2064069;28;19932;-43
2022/02/11 05:09:11;;;;;;;;;;;;;;;17.24;52.51;100708.44;2064897;28;19928;-42
2022/02/11 05:10:15;;;;;;;;;;;;;;;17.24;52.65;100712.03;2054429;28;20509;-43
2022/02/11 05:11:15;;;;;;;;;;;;;;;17.24;52.48;100711.16;2052184;28;19922;-42
2022/02/11 05:12:15;;;;;;;;;;;;;;;17.25;52.44;100710.19;2064276;28;19917;-43
2022/02/11 05:13:16;;;;;;;;;;;;;;;17.24;52.59;100706.59;2062699;28;20359;-43
2022/02/11 05:14:17;;;;;;;;;;;;;;;17.25;52.47;100712.94;2055852;28;20284;-43
2022/02/11 05:15:17;;;;;;;;;;;;;;;17.24;52.62;100711.16;2053560;28;19921;-42
2022/02/11 05:16:17;;;;;;;;;;;;;;;17.25;52.58;100718.38;2065012;28;19982;-43
2022/02/11 05:17:18;;;;;;;;;;;;;;;17.25;52.42;100712.94;2061258;28;19917;-42
2022/02/11 05:18:18;;;;;;;;;;;;;;;17.25;52.40;100721.09;2063562;28;19986;-42
2022/02/11 05:19:18;;;;;;;;;;;;;;;17.24;52.64;100719.34;2063336;28;19927;-43
2022/02/11 05:20:19;;;;;;;;;;;;;;;17.24;52.57;100722.94;2066290;28;19921;-42
2022/02/11 05:21:19;;;;;;;;;;;;;;;17.25;52.64;100726.56;2061992;28;20346;-44
2022/02/11 05:22:19;;;;;;;;;;;;;;;17.25;52.55;100726.56;2065829;28;19925;-43
2022/02/11 05:23:20;;;;;;;;;;;;;;;17.24;52.51;100724.78;2062801;28;19979;-43
2022/02/11 05:24:21;;;;;;;;;;;;;;;17.24;52.42;100727.53;2062787;28;20598;-45
2022/02/11 05:25:21;;;;;;;;;;;;;;;17.24;52.49;100728.38;2063574;28;19982;-43
2022/02/11 05:26:21;;;;;;;;;;;;;;;17.24;52.61;100732.97;2062408;28;20183;-43
2022/02/11 05:27:22;;;;;;;;;;;;;;;17.23;52.44;100729.38;2064956;28;19921;-43
2022/02/11 05:28:23;;;;;;;;;;;;;;;17.23;52.32;100731.25;2062082;28;19931;-43
2022/02/11 05:29:24;;;;;;;;;;;;;;;17.23;52.61;100728.53;2049069;28;19921;-43
2022/02/11 05:30:24;;;;;;;;;;;;;;;17.23;52.50;100728.53;2052972;28;19925;-42
2022/02/11 05:31:24;;;;;;;;;;;;;;;17.22;52.60;100729.50;2067187;28;19967;-43
2022/02/11 05:32:24;;;;;;;;;;;;;;;17.21;52.59;100731.34;2061800;28;20431;-43
2022/02/11 05:33:27;;;;;;;;;;;;;;;17.21;52.62;100733.22;2066206;28;19996;-43
2022/02/11 05:34:27;;;;;;;;;;;;;;;17.20;52.67;100726.91;2064571;28;19980;-43
2022/02/11 05:35:28;;;;;;;;;;;;;;;17.20;52.69;100728.75;2053164;28;19914;-44
2022/02/11 05:36:28;;;;;;;;;;;;;;;17.21;52.59;100730.50;2057784;28;19921;-43
2022/02/11 05:37:29;;;;;;;;;;;;;;;17.20;52.68;100728.75;2063422;28;19918;-43
2022/02/11 05:38:30;;;;;;;;;;;;;;;17.19;52.78;100727.88;2063126;28;19951;-44
2022/02/11 05:39:30;;;;;;;;;;;;;;;17.19;52.75;100729.75;2065215;28;19929;-42
2022/02/11 05:40:30;;;;;;;;;;;;;;;17.19;52.83;100718.84;2063429;28;19920;-41
2022/02/11 05:41:31;;;;;;;;;;;;;;;17.18;52.55;100723.44;2063584;28;19921;-42
2022/02/11 05:42:31;;;;;;;;;;;;;;;17.18;52.77;100723.44;2062782;28;20514;-43
2022/02/11 05:43:32;;;;;;;;;;;;;;;17.18;52.67;100722.56;2066147;28;20491;-43
2022/02/11 05:44:32;;;;;;;;;;;;;;;17.17;52.85;100726.28;2063676;28;19925;-43
2022/02/11 05:45:32;;;;;;;;;;;;;;;17.17;52.94;100729.00;2062628;28;19917;-43
2022/02/11 05:46:32;;;;;;;;;;;;;;;17.17;52.54;100731.72;2067351;28;20310;-42
2022/02/11 05:47:33;;;;;;;;;;;;;;;17.18;52.66;100730.75;2066205;28;20019;-43
2022/02/11 05:48:36;;;;;;;;;;;;;;;17.16;52.74;100719.09;2060717;28;20004;-42
2022/02/11 05:49:36;;;;;;;;;;;;;;;17.17;52.86;100726.28;2063989;28;19925;-43
2022/02/11 05:50:36;;;;;;;;;;;;;;;17.17;52.76;100724.41;2063394;28;19913;-42
2022/02/11 05:51:37;;;;;;;;;;;;;;;17.17;52.82;100727.13;2064621;28;19999;-42
2022/02/11 05:52:37;;;;;;;;;;;;;;;17.18;52.93;100725.31;2067417;28;20259;-42
2022/02/11 05:53:38;;;;;;;;;;;;;;;17.17;52.63;100715.38;2064115;28;19929;-42
2022/02/11 05:54:38;;;;;;;;;;;;;;;17.17;52.54;100723.53;2062579;28;19978;-43
2022/02/11 05:55:39;;;;;;;;;;;;;;;17.17;52.59;100726.28;2062421;28;19921;-43
2022/02/11 05:56:39;;;;;;;;;;;;;;;17.17;52.58;100726.28;2066385;28;19932;-42
2022/02/11 05:57:40;;;;;;;;;;;;;;;17.16;52.69;100724.56;2063221;28;20412;-42
2022/02/11 05:58:40;;;;;;;;;;;;;;;17.16;52.65;100730.00;2065677;28;19951;-42
2022/02/11 05:59:40;;;;;;;;;;;;;;;17.16;52.81;100722.69;2062705;28;20486;-43
2022/02/11 06:00:40;;;;;;;;;;;;;;;17.17;52.59;100731.72;2061507;28;19921;-42
2022/02/11 06:01:41;;;;;;;;;;;;;;;17.16;52.65;100735.44;2063849;28;20233;-42
2022/02/11 06:02:41;;;;;;;;;;;;;;;17.16;52.68;100738.19;2063698;28;19944;-43
2022/02/11 06:03:42;;;;;;;;;;;;;;;17.16;52.54;100730.00;2060811;28;19922;-43
2022/02/11 06:04:43;;;;;;;;;;;;;;;17.16;52.69;100724.56;2066934;28;19976;-42
2022/02/11 06:05:43;;;;;;;;;;;;;;;17.16;52.71;100736.31;2069979;28;19921;-43
2022/02/11 06:06:43;;;;;;;;;;;;;;;17.16;52.51;100732.72;2062551;28;19922;-42
2022/02/11 06:07:44;;;;;;;;;;;;;;;17.16;52.60;100735.44;2066922;28;20484;-43
2022/02/11 06:08:44;;;;;;;;;;;;;;;17.17;52.73;100734.44;2067598;28;19928;-43
2022/02/11 06:09:44;;;;;;;;;;;;;;;17.17;52.60;100731.72;2067047;28;19913;-42
2022/02/11 06:10:46;;;;;;;;;;;;;;;17.17;52.81;100734.44;2066477;28;19920;-43
2022/02/11 06:11:46;;;;;;;;;;;;;;;17.18;52.69;100738.94;2065798;28;19921;-43
2022/02/11 06:12:46;;;;;;;;;;;;;;;17.19;52.67;100737.91;2066242;28;20406;-43
2022/02/11 06:13:47;;;;;;;;;;;;;;;17.18;52.78;100736.19;2068162;28;20015;-43
2022/02/11 06:14:47;;;;;;;;;;;;;;;17.18;53.00;100738.94;2063502;28;19913;-42
2022/02/11 06:15:48;;;;;;;;;;;;;;;17.17;52.80;100740.75;2065910;28;19925;-43
2022/02/11 06:16:49;;;;;;;;;;;;;;;17.18;52.78;100738.94;2066921;28;20357;-42
2022/02/11 06:17:49;;;;;;;;;;;;;;;17.17;52.76;100748.94;2065831;28;19928;-42
2022/02/11 06:18:50;;;;;;;;;;;;;;;17.18;52.70;100750.69;2067616;28;20039;-43
2022/02/11 06:19:50;;;;;;;;;;;;;;;17.17;52.72;100748.06;2064425;28;19956;-42
2022/02/11 06:20:51;;;;;;;;;;;;;;;17.17;52.56;100748.94;2056381;28;20020;-43
2022/02/11 06:21:51;;;;;;;;;;;;;;;17.17;52.98;100748.06;2055870;28;19926;-43
2022/02/11 06:22:51;;;;;;;;;;;;;;;17.18;52.78;100749.81;2071865;28;19921;-42
2022/02/11 06:23:55;;;;;;;;;;;;;;;17.16;52.85;100755.38;2066579;28;19921;-43
2022/02/11 06:24:55;;;;;;;;;;;;;;;17.16;52.86;100752.66;2058951;28;19926;-42
2022/02/11 06:25:56;;;;;;;;;;;;;;;17.17;52.73;100753.50;2056571;28;19926;-42
2022/02/11 06:26:56;;;;;;;;;;;;;;;17.16;52.68;100759.97;2063124;28;19922;-42
2022/02/11 06:27:56;;;;;;;;;;;;;;;17.15;52.65;100756.38;2061033;28;19939;-42
2022/02/11 06:28:57;;;;;;;;;;;;;;;17.16;52.86;100757.25;2063325;28;20011;-42
2022/02/11 06:29:57;;;;;;;;;;;;;;;17.16;52.66;100758.09;2064944;28;20645;-43
2022/02/11 06:30:57;;;;;;;;;;;;;;;17.16;52.92;100757.25;2067680;28;19921;-43
2022/02/11 06:31:58;;;;;;;;;;;;;;;17.15;52.96;100756.38;2066203;28;19925;-42
2022/02/11 06:32:58;;;;;;;;;;;;;;;17.14;52.76;100755.50;2065786;28;20440;-43
2022/02/11 06:33:58;;;;;;;;;;;;;;;17.14;53.04;100754.63;2067193;28;20279;-43
2022/02/11 06:34:59;;;;;;;;;;;;;;;17.14;53.00;100755.50;2065279;28;19974;-42
2022/02/11 06:35:59;;;;;;;;;;;;;;;17.16;52.80;100757.25;2063382;28;19951;-42
2022/02/11 06:37:00;;;;;;;;;;;;;;;17.14;53.00;100760.06;2067352;28;20036;-43
2022/02/11 06:38:00;;;;;;;;;;;;;;;17.14;52.67;100755.50;2066948;28;19976;-43
2022/02/11 06:39:00;;;;;;;;;;;;;;;17.14;52.64;100763.66;2065267;28;20661;-42
2022/02/11 06:40:01;;;;;;;;;;;;;;;17.15;52.86;100756.38;2070771;28;20217;-42
2022/02/11 06:41:02;;;;;;;;;;;;;;;17.15;52.91;100756.38;2053673;28;20167;-42
2022/02/11 06:42:02;;;;;;;;;;;;;;;17.15;52.82;100761.84;2056253;28;19922;-43
2022/02/11 06:43:03;;;;;;;;;;;;;;;17.17;52.94;100756.25;2064533;28;20547;-42
2022/02/11 06:44:03;;;;;;;;;;;;;;;17.18;53.05;100758.00;2065727;28;19990;-43
2022/02/11 06:45:04;;;;;;;;;;;;;;;17.17;52.77;100767.13;2063012;28;19932;-42
2022/02/11 06:46:04;;;;;;;;;;;;;;;17.18;52.75;100758.00;2063117;28;22420;-42
2022/02/11 06:47:05;;;;;;;;;;;;;;;17.19;53.05;100767.88;2067134;28;19925;-42
2022/02/11 06:48:05;;;;;;;;;;;;;;;17.18;52.74;100763.44;2063998;28;19927;-43
2022/02/11 06:49:05;;;;;;;;;;;;;;;17.18;52.79;100755.28;2063913;28;19936;-42
2022/02/11 06:50:06;;;;;;;;;;;;;;;17.17;52.82;100762.56;2063882;28;20316;-43
2022/02/11 06:51:06;;;;;;;;;;;;;;;17.17;52.85;100772.59;2059281;28;19981;-42
2022/02/11 06:52:07;;;;;;;;;;;;;;;17.18;52.66;100767.03;2053050;28;20080;-43
2022/02/11 06:53:09;;;;;;;;;;;;;;;17.18;53.00;100771.63;2067483;28;20397;-42
2022/02/11 06:54:10;;;;;;;;;;;;;;;17.17;52.87;100768.00;2068159;28;20304;-42
2022/02/11 06:55:10;;;;;;;;;;;;;;;17.18;52.93;100774.34;2064545;28;20024;-43
2022/02/11 06:56:10;;;;;;;;;;;;;;;17.18;52.78;100771.63;2064138;28;19913;-43
2022/02/11 06:57:11;;;;;;;;;;;;;;;17.17;52.89;100767.13;2064053;28;20806;-42
2022/02/11 06:58:11;;;;;;;;;;;;;;;17.19;52.88;100767.88;2063295;28;19967;-42
2022/02/11 06:59:12;;;;;;;;;;;;;;;17.18;52.75;100760.72;2066095;28;19921;-42
2022/02/11 07:00:14;;;;;;;;;;;;;;;17.19;52.65;100767.88;2065516;28;19921;-42
2022/02/11 07:01:14;;;;;;;;;;;;;;;17.18;52.82;100767.03;2059637;28;20308;-42
2022/02/11 07:02:16;;;;;;;;;;;;;;;17.19;52.89;100778.78;2063661;28;19927;-42
2022/02/11 07:03:17;;;;;;;;;;;;;;;17.18;53.06;100777.06;2068902;28;19961;-42
2022/02/11 07:04:17;;;;;;;;;;;;;;;17.19;52.80;100779.66;2067757;28;19921;-44
2022/02/11 07:05:19;;;;;;;;;;;;;;;17.19;53.03;100784.22;2063138;28;20300;-42
2022/02/11 07:06:19;;;;;;;;;;;;;;;17.20;53.03;100780.50;2058543;28;19997;-44
2022/02/11 07:07:20;;;;;;;;;;;;;;;17.20;52.96;100780.50;2059562;28;19932;-43
2022/02/11 07:08:20;;;;;;;;;;;;;;;17.19;53.11;100779.66;2064939;28;19921;-43
2022/02/11 07:09:20;;;;;;;;;;;;;;;17.19;52.89;100784.22;2055311;28;19921;-42
2022/02/11 07:10:21;;;;;;;;;;;;;;;17.20;52.74;100788.69;2057748;28;20008;-43
2022/02/11 07:11:21;;;;;;;;;;;;;;;17.19;52.86;100785.09;2054499;28;20607;-43
2022/02/11 07:12:22;;;;;;;;;;;;;;;17.20;52.90;100785.97;2060139;28;19956;-43
2022/02/11 07:13:23;;;;;;;;;;;;;;;17.20;52.79;100786.84;2055120;28;19928;-43
2022/02/11 07:14:24;;;;;;;;;;;;;;;17.20;52.85;100781.41;2054499;28;19925;-43
2022/02/11 07:15:24;;;;;;;;;;;;;;;17.20;53.15;100783.22;2056383;28;19918;-43
2022/02/11 07:16:24;;;;;;;;;;;;;;;17.21;53.05;100785.00;2054876;28;19922;-43
2022/02/11 07:17:25;;;;;;;;;;;;;;;17.20;52.97;100783.22;2061459;28;19927;-43
2022/02/11 07:18:25;;;;;;;;;;;;;;;17.21;52.86;100793.16;2062768;28;19920;-42
2022/02/11 07:19:25;;;;;;;;;;;;;;;17.20;52.97;100791.41;2062086;28;20019;-43
2022/02/11 07:20:26;;;;;;;;;;;;;;;17.19;53.03;100796.00;2064065;28;20008;-43
2022/02/11 07:21:26;;;;;;;;;;;;;;;17.20;52.95;100796.84;2063400;28;19990;-43
2022/02/11 07:22:34;;;;;;;;;;;;;;;17.20;52.70;100796.84;2064609;28;19917;-43
2022/02/11 07:23:34;;;;;;;;;;;;;;;17.19;53.04;100796.00;2054970;28;19922;-43
2022/02/11 07:24:34;;;;;;;;;;;;;;;17.19;53.14;100792.41;2053216;28;19925;-43
2022/02/11 07:25:35;;;;;;;;;;;;;;;17.19;53.16;100795.13;2065339;28;19932;-46
2022/02/11 07:26:35;;;;;;;;;;;;;;;17.20;52.88;100796.84;2064852;28;19921;-42
2022/02/11 07:27:36;;;;;;;;;;;;;;;17.18;53.07;100796.13;2065109;28;19925;-43
2022/02/11 07:28:36;;;;;;;;;;;;;;;17.17;52.96;100797.09;2062819;28;20720;-42
2022/02/11 07:29:37;;;;;;;;;;;;;;;17.18;52.99;100794.28;2065758;28;19960;-43
2022/02/11 07:30:37;;;;;;;;;;;;;;;17.18;52.95;100801.59;2061875;28;19921;-45
2022/02/11 07:31:37;;;;;;;;;;;;;;;17.17;53.05;100805.28;2062436;28;21581;-43
2022/02/11 07:32:38;;;;;;;;;;;;;;;17.17;53.06;100802.56;2055999;28;20313;-43
2022/02/11 07:33:38;;;;;;;;;;;;;;;17.16;52.85;100811.72;2054358;28;19924;-43
2022/02/11 07:34:39;;;;;;;;;;;;;;;17.17;52.91;100802.56;2065659;28;19921;-43
2022/02/11 07:35:39;;;;;;;;;;;;;;;17.16;53.02;100804.41;2065546;28;20567;-42
2022/02/11 07:36:39;;;;;;;;;;;;;;;17.16;52.93;100809.88;2065983;28;19925;-42
2022/02/11 07:37:40;;;;;;;;;;;;;;;17.15;53.02;100810.88;2063700;28;19928;-43
2022/02/11 07:38:40;;;;;;;;;;;;;;;17.14;53.13;100803.66;2065921;28;19917;-42
2022/02/11 07:39:40;;;;;;;;;;;;;;;17.15;52.95;100810.88;2061252;28;19990;-43
2022/02/11 07:40:41;;;;;;;;;;;;;;;17.14;52.94;100809.97;2061845;28;20714;-43
2022/02/11 07:41:41;;;;;;;;;;;;;;;17.15;52.67;100821.75;2068236;28;20271;-43
2022/02/11 07:42:42;;;;;;;;;;;;;;;17.15;53.06;100821.75;2062162;28;19974;-43
2022/02/11 07:43:45;;;;;;;;;;;;;;;17.14;52.82;100820.00;2061657;28;19999;-43
2022/02/11 07:44:45;;;;;;;;;;;;;;;17.16;53.00;100819.91;2067229;28;19924;-42
2022/02/11 07:45:46;;;;;;;;;;;;;;;17.14;53.00;100820.88;2062505;28;20324;-43
2022/02/11 07:46:48;;;;;;;;;;;;;;;17.15;52.85;100821.75;2063730;28;19921;-42
2022/02/11 07:47:48;;;;;;;;;;;;;;;17.16;52.79;100828.06;2066048;28;19917;-42
2022/02/11 07:48:49;;;;;;;;;;;;;;;17.13;52.91;100821.00;2067019;28;19921;-47
2022/02/11 07:49:49;;;;;;;;;;;;;;;17.12;52.86;100822.88;2065728;28;20127;-43
2022/02/11 07:50:51;;;;;;;;;;;;;;;17.16;52.74;100825.34;2065565;28;20042;-42
2022/02/11 07:51:51;;;;;;;;;;;;;;;17.14;52.86;100831.78;2061210;28;20010;-43
2022/02/11 07:52:52;;;;;;;;;;;;;;;17.14;52.99;100826.31;2066041;28;19947;-42
2022/02/11 07:53:53;;;;;;;;;;;;;;;17.14;52.92;100828.19;2064994;28;20005;-42
2022/02/11 07:54:54;;;;;;;;;;;;;;;17.13;52.96;100830.03;2065274;28;20265;-44
2022/02/11 07:55:54;;;;;;;;;;;;;;;17.13;53.13;100832.78;2065312;28;20224;-44
2022/02/11 07:56:55;;;;;;;;;;;;;;;17.13;52.92;100830.03;2064022;28;19921;-43
2022/02/11 07:57:55;;;;;;;;;;;;;;;17.12;52.90;100832.88;2065570;28;19925;-42
2022/02/11 07:58:55;;;;;;;;;;;;;;;17.12;52.81;100838.31;2065428;28;19947;-43
2022/02/11 07:59:56;;;;;;;;;;;;;;;17.12;53.08;100843.78;2066016;28;19925;-42
2022/02/11 08:00:57;;;;;;;;;;;;;;;17.12;52.86;100844.66;2064493;28;20000;-44
2022/02/11 08:01:58;;;;;;;;;;;;;;;17.13;53.03;100850.97;2062660;28;19928;-42
2022/02/11 08:02:58;;;;;;;;;;;;;;;17.11;53.18;100840.19;2065987;28;22671;-42
2022/02/11 08:03:58;;;;;;;;;;;;;;;17.11;53.02;100848.34;2064157;28;19917;-42
2022/02/11 08:04:59;;;;;;;;;;;;;;;17.11;52.85;100851.09;2066850;28;19968;-42
2022/02/11 08:05:59;;;;;;;;;;;;;;;17.10;53.02;100846.63;2061816;28;20063;-43
2022/02/11 08:06:59;;;;;;;;;;;;;;;17.11;52.99;100847.50;2065764;28;20020;-42
2022/02/11 08:08:00;;;;;;;;;;;;;;;17.10;52.95;100852.09;2064470;28;19913;-42
2022/02/11 08:09:00;;;;;;;;;;;;;;;17.09;53.01;100852.19;2063188;28;19944;-42
2022/02/11 08:10:00;;;;;;;;;;;;;;;17.09;53.14;100844.88;2063310;28;20501;-43
2022/02/11 08:11:01;;;;;;;;;;;;;;;17.08;52.98;100851.34;2062482;28;20439;-42
2022/02/11 08:12:03;;;;;;;;;;;;;;;17.09;53.15;100855.78;2065119;28;20043;-43
2022/02/11 08:13:03;;;;;;;;;;;;;;;17.08;52.98;100848.59;2064474;28;19928;-43
2022/02/11 08:14:04;;;;;;;;;;;;;;;17.07;52.99;100852.31;2067652;28;19964;-42
2022/02/11 08:15:04;;;;;;;;;;;;;;;17.07;53.08;100846.84;2062736;28;20287;-42
2022/02/11 08:16:05;;;;;;;;;;;;;;;17.07;52.96;100835.97;2059457;28;20413;-43
2022/02/11 08:17:06;;;;;;;;;;;;;;;17.06;53.10;100845.13;2061619;28;19921;-43
2022/02/11 08:18:06;;;;;;;;;;;;;;;17.07;52.98;100840.53;2062876;28;19936;-43
2022/02/11 08:19:07;;;;;;;;;;;;;;;17.06;52.78;100841.53;2064398;28;19941;-42
2022/02/11 08:20:08;;;;;;;;;;;;;;;17.06;53.07;100845.13;2062389;28;20015;-42
2022/02/11 08:21:08;;;;;;;;;;;;;;;17.06;52.93;100847.84;2060524;28;19992;-43
2022/02/11 08:22:08;;;;;;;;;;;;;;;17.06;53.18;100842.41;2063317;28;20421;-42
2022/02/11 08:23:09;;;;;;;;;;;;;;;17.05;53.04;100843.41;2062584;28;19940;-43
2022/02/11 08:24:09;;;;;;;;;;;;;;;17.06;53.04;100839.69;2061967;28;20314;-44
2022/02/11 08:25:10;;;;;;;;;;;;;;;17.06;53.08;100838.81;2064876;28;19972;-42
2022/02/11 08:26:11;;;;;;;;;;;;;;;17.05;53.11;100837.94;2062240;28;19917;-43
2022/02/11 08:27:14;;;;;;;;;;;;;;;17.05;53.03;100832.50;2058709;28;19953;-42
2022/02/11 08:28:15;;;;;;;;;;;;;;;17.06;52.90;100847.00;2064065;28;19921;-43
2022/02/11 08:29:21;;;;;;;;;;;;;;;17.05;52.90;100840.69;2063519;28;20405;-42
2022/02/11 08:30:21;;;;;;;;;;;;;;;17.05;53.11;100837.94;2064911;28;20366;-43
2022/02/11 08:31:22;;;;;;;;;;;;;;;17.05;53.16;100843.41;2061219;28;19928;-43
2022/02/11 08:32:24;;;;;;;;;;;;;;;17.04;53.01;100841.66;2060781;28;19928;-43
2022/02/11 08:33:24;;;;;;;;;;;;;;;17.04;53.11;100841.66;2060694;28;19921;-42
2022/02/11 08:34:25;;;;;;;;;;;;;;;17.05;53.16;100846.13;2063596;28;19921;-45
2022/02/11 08:35:25;;;;;;;;;;;;;;;17.04;53.31;100841.66;2063551;28;19917;-43
2022/02/11 08:36:26;;;;;;;;;;;;;;;17.04;53.02;100851.69;2063211;28;19973;-43
2022/02/11 08:37:26;;;;;;;;;;;;;;;17.04;53.10;100847.09;2065011;28;19924;-43
2022/02/11 08:38:26;;;;;;;;;;;;;;;17.04;53.37;100851.69;2056302;28;19929;-43
2022/02/11 08:39:27;;;;;;;;;;;;;;;17.03;52.92;100839.94;2053885;28;19972;-43
2022/02/11 08:40:27;;;;;;;;;;;;;;;17.03;53.05;100839.06;2066192;28;20382;-43
2022/02/11 08:41:27;;;;;;;;;;;;;;;17.03;53.23;100841.78;2063193;28;19921;-43
2022/02/11 08:42:28;;;;;;;;;;;;;;;17.02;53.00;100838.16;2062521;28;19947;-42
2022/02/11 08:43:28;;;;;;;;;;;;;;;17.02;52.93;100834.59;2065117;28;19965;-43
2022/02/11 08:44:29;;;;;;;;;;;;;;;17.00;52.97;100829.28;2056859;28;19921;-43
2022/02/11 08:45:31;;;;;;;;;;;;;;;17.02;52.99;100834.59;2057549;28;20036;-43
2022/02/11 08:46:31;;;;;;;;;;;;;;;17.01;53.16;100836.44;2064634;28;20214;-43
2022/02/11 08:47:32;;;;;;;;;;;;;;;17.02;53.10;100840.03;2067762;28;19925;-43
2022/02/11 08:48:33;;;;;;;;;;;;;;;17.01;53.09;100843.75;2067526;28;20018;-41
2022/02/11 08:49:33;;;;;;;;;;;;;;;17.00;53.22;100837.44;2063622;28;19994;-42
2022/02/11 08:50:34;;;;;;;;;;;;;;;17.00;53.23;100840.16;2062152;28;20007;-43
2022/02/11 08:51:34;;;;;;;;;;;;;;;17.00;53.12;100834.72;2065423;28;19921;-43
2022/02/11 08:52:36;;;;;;;;;;;;;;;16.99;53.30;100841.13;2059576;28;20600;-43
2022/02/11 08:53:37;;;;;;;;;;;;;;;17.00;53.11;100836.56;2062495;28;20004;-42
2022/02/11 08:54:37;;;;;;;;;;;;;;;17.00;53.20;100845.63;2061224;28;19922;-43
2022/02/11 08:55:38;;;;;;;;;;;;;;;16.99;53.15;100843.84;2061993;28;19928;-42
2022/02/11 08:56:39;;;;;;;;;;;;;;;16.99;53.24;100848.44;2075283;28;19956;-43
2022/02/11 08:57:44;;;;;;;;;;;;;;;16.97;53.14;100845.81;2065570;28;20042;-42